sensor_id;sensor_type;location;lat;lon;timestamp;pressure;altitude;pressure_sealevel;temperature;humidity
79690;BME280;69156;55.932;-3.238;2023-07-13T00:01:00;100236.92;;;14.73;70.24
79690;BME280;69156;55.932;-3.238;2023-07-13T00:03:25;100236.37;;;14.80;70.20
79690;BME280;69156;55.932;-3.238;2023-07-13T00:05:57;100239.59;;;14.81;69.90
79690;BME280;69156;55.932;-3.238;2023-07-13T00:08:16;100239.54;;;14.66;70.29
79690;BME280;69156;55.932;-3.238;2023-07-13T00:10:41;100237.05;;;14.81;70.24
79690;BME280;69156;55.932;-3.238;2023-07-13T00:13:06;100238.31;;;14.56;70.12
79690;BME280;69156;55.932;-3.238;2023-07-13T00:15:31;100240.96;;;14.61;70.35
79690;BME280;69156;55.932;-3.238;2023-07-13T00:17:57;100243.35;;;14.57;70.24
79690;BME280;69156;55.932;-3.238;2023-07-13T00:20:24;100240.02;;;14.43;70.27
79690;BME280;69156;55.932;-3.238;2023-07-13T00:22:48;100240.57;;;14.46;70.44
79690;BME280;69156;55.932;-3.238;2023-07-13T00:25:14;100245.98;;;14.56;70.59
79690;BME280;69156;55.932;-3.238;2023-07-13T00:27:39;100246.12;;;14.39;70.56
79690;BME280;69156;55.932;-3.238;2023-07-13T00:30:06;100243.10;;;14.38;70.55
79690;BME280;69156;55.932;-3.238;2023-07-13T00:32:30;100244.85;;;14.55;70.49
79690;BME280;69156;55.932;-3.238;2023-07-13T00:34:56;100248.39;;;14.49;70.49
79690;BME280;69156;55.932;-3.238;2023-07-13T00:37:21;100249.49;;;14.48;70.79
79690;BME280;69156;55.932;-3.238;2023-07-13T00:39:47;100251.03;;;14.46;70.50
79690;BME280;69156;55.932;-3.238;2023-07-13T00:42:12;100259.10;;;14.53;70.68
79690;BME280;69156;55.932;-3.238;2023-07-13T00:44:37;100257.48;;;14.38;70.59
79690;BME280;69156;55.932;-3.238;2023-07-13T00:47:03;100258.19;;;14.41;70.90
79690;BME280;69156;55.932;-3.238;2023-07-13T00:49:31;100258.59;;;14.42;71.32
79690;BME280;69156;55.932;-3.238;2023-07-13T00:51:56;100257.61;;;14.37;71.23
79690;BME280;69156;55.932;-3.238;2023-07-13T00:54:23;100257.64;;;14.34;71.29
79690;BME280;69156;55.932;-3.238;2023-07-13T00:56:50;100254.64;;;14.30;71.20
79690;BME280;69156;55.932;-3.238;2023-07-13T00:59:12;100256.85;;;14.24;71.17
79690;BME280;69156;55.932;-3.238;2023-07-13T01:01:37;100259.58;;;14.05;71.33
79690;BME280;69156;55.932;-3.238;2023-07-13T01:04:02;100260.31;;;14.19;71.57
79690;BME280;69156;55.932;-3.238;2023-07-13T01:06:28;100258.94;;;14.06;71.73
79690;BME280;69156;55.932;-3.238;2023-07-13T01:08:52;100260.12;;;14.12;71.72
79690;BME280;69156;55.932;-3.238;2023-07-13T01:11:20;100259.62;;;14.06;71.78
79690;BME280;69156;55.932;-3.238;2023-07-13T01:13:42;100257.04;;;14.07;71.70
79690;BME280;69156;55.932;-3.238;2023-07-13T01:16:15;100257.88;;;14.05;71.58
79690;BME280;69156;55.932;-3.238;2023-07-13T01:18:33;100258.30;;;14.10;71.43
79690;BME280;69156;55.932;-3.238;2023-07-13T01:21:00;100259.15;;;14.09;71.33
79690;BME280;69156;55.932;-3.238;2023-07-13T01:23:25;100262.78;;;13.94;71.69
79690;BME280;69156;55.932;-3.238;2023-07-13T01:25:49;100259.40;;;13.97;71.96
79690;BME280;69156;55.932;-3.238;2023-07-13T01:28:15;100258.84;;;14.01;71.53
79690;BME280;69156;55.932;-3.238;2023-07-13T01:30:40;100262.05;;;13.99;71.65
79690;BME280;69156;55.932;-3.238;2023-07-13T01:33:07;100265.49;;;13.91;71.81
79690;BME280;69156;55.932;-3.238;2023-07-13T01:35:33;100269.50;;;13.94;71.61
79690;BME280;69156;55.932;-3.238;2023-07-13T01:37:59;100272.39;;;13.91;71.83
79690;BME280;69156;55.932;-3.238;2023-07-13T01:40:24;100275.75;;;13.95;71.96
79690;BME280;69156;55.932;-3.238;2023-07-13T01:42:49;100276.47;;;13.91;71.77
79690;BME280;69156;55.932;-3.238;2023-07-13T01:45:15;100276.94;;;13.88;71.52
79690;BME280;69156;55.932;-3.238;2023-07-13T01:47:40;100277.48;;;13.97;71.49
79690;BME280;69156;55.932;-3.238;2023-07-13T01:50:07;100279.40;;;13.85;71.40
79690;BME280;69156;55.932;-3.238;2023-07-13T01:52:32;100278.50;;;13.78;71.40
79690;BME280;69156;55.932;-3.238;2023-07-13T01:54:57;100277.39;;;13.86;71.30
79690;BME280;69156;55.932;-3.238;2023-07-13T01:57:22;100278.35;;;13.82;71.43
79690;BME280;69156;55.932;-3.238;2023-07-13T01:59:48;100278.32;;;13.86;71.21
79690;BME280;69156;55.932;-3.238;2023-07-13T02:02:13;100282.68;;;13.79;71.28
79690;BME280;69156;55.932;-3.238;2023-07-13T02:04:38;100283.57;;;13.77;71.33
79690;BME280;69156;55.932;-3.238;2023-07-13T02:07:04;100283.77;;;13.76;71.41
79690;BME280;69156;55.932;-3.238;2023-07-13T02:09:30;100285.36;;;13.79;71.12
79690;BME280;69156;55.932;-3.238;2023-07-13T02:11:56;100285.72;;;13.73;71.43
79690;BME280;69156;55.932;-3.238;2023-07-13T02:14:22;100282.55;;;13.76;71.17
79690;BME280;69156;55.932;-3.238;2023-07-13T02:16:47;100288.13;;;13.82;70.87
79690;BME280;69156;55.932;-3.238;2023-07-13T02:19:13;100288.60;;;13.73;71.02
79690;BME280;69156;55.932;-3.238;2023-07-13T02:21:39;100288.53;;;13.68;71.19
79690;BME280;69156;55.932;-3.238;2023-07-13T02:24:04;100286.84;;;13.55;71.29
79690;BME280;69156;55.932;-3.238;2023-07-13T02:26:29;100289.62;;;13.71;71.25
79690;BME280;69156;55.932;-3.238;2023-07-13T02:28:54;100284.93;;;13.76;71.44
79690;BME280;69156;55.932;-3.238;2023-07-13T02:31:20;100287.29;;;13.73;71.21
79690;BME280;69156;55.932;-3.238;2023-07-13T02:33:45;100288.39;;;13.74;71.33
79690;BME280;69156;55.932;-3.238;2023-07-13T02:36:12;100289.24;;;13.84;71.19
79690;BME280;69156;55.932;-3.238;2023-07-13T02:38:37;100285.04;;;13.77;71.27
79690;BME280;69156;55.932;-3.238;2023-07-13T02:41:03;100286.35;;;13.76;71.27
79690;BME280;69156;55.932;-3.238;2023-07-13T02:43:28;100288.55;;;13.77;71.20
79690;BME280;69156;55.932;-3.238;2023-07-13T02:45:53;100291.33;;;13.75;70.99
79690;BME280;69156;55.932;-3.238;2023-07-13T02:48:19;100292.69;;;13.81;70.72
79690;BME280;69156;55.932;-3.238;2023-07-13T02:50:45;100290.23;;;13.82;70.59
79690;BME280;69156;55.932;-3.238;2023-07-13T02:53:10;100291.30;;;13.80;70.63
79690;BME280;69156;55.932;-3.238;2023-07-13T02:55:36;100292.43;;;13.83;70.51
79690;BME280;69156;55.932;-3.238;2023-07-13T02:58:01;100293.96;;;13.79;70.30
79690;BME280;69156;55.932;-3.238;2023-07-13T03:00:27;100296.49;;;13.74;70.28
79690;BME280;69156;55.932;-3.238;2023-07-13T03:02:52;100295.21;;;13.80;70.25
79690;BME280;69156;55.932;-3.238;2023-07-13T03:05:17;100297.31;;;13.75;70.24
79690;BME280;69156;55.932;-3.238;2023-07-13T03:07:42;100297.30;;;13.94;69.86
79690;BME280;69156;55.932;-3.238;2023-07-13T03:10:09;100299.74;;;13.80;69.32
79690;BME280;69156;55.932;-3.238;2023-07-13T03:12:33;100299.98;;;13.76;69.09
79690;BME280;69156;55.932;-3.238;2023-07-13T03:14:58;100300.26;;;13.73;69.03
79690;BME280;69156;55.932;-3.238;2023-07-13T03:17:24;100300.49;;;13.68;69.02
79690;BME280;69156;55.932;-3.238;2023-07-13T03:19:50;100298.87;;;13.60;68.80
79690;BME280;69156;55.932;-3.238;2023-07-13T03:22:15;100302.14;;;13.57;68.92
79690;BME280;69156;55.932;-3.238;2023-07-13T03:24:40;100302.97;;;13.48;69.12
79690;BME280;69156;55.932;-3.238;2023-07-13T03:27:06;100304.70;;;13.45;69.09
79690;BME280;69156;55.932;-3.238;2023-07-13T03:29:31;100305.85;;;13.49;68.87
79690;BME280;69156;55.932;-3.238;2023-07-13T03:31:56;100308.58;;;13.37;69.20
79690;BME280;69156;55.932;-3.238;2023-07-13T03:34:22;100307.49;;;13.36;68.65
79690;BME280;69156;55.932;-3.238;2023-07-13T03:36:48;100304.80;;;13.38;68.14
79690;BME280;69156;55.932;-3.238;2023-07-13T03:39:13;100303.94;;;13.39;68.04
79690;BME280;69156;55.932;-3.238;2023-07-13T03:41:39;100302.64;;;13.30;67.96
79690;BME280;69156;55.932;-3.238;2023-07-13T03:44:04;100302.36;;;13.34;67.98
79690;BME280;69156;55.932;-3.238;2023-07-13T03:46:30;100302.54;;;13.23;67.61
79690;BME280;69156;55.932;-3.238;2023-07-13T03:48:55;100300.67;;;13.28;67.41
79690;BME280;69156;55.932;-3.238;2023-07-13T03:51:21;100305.27;;;13.22;67.52
79690;BME280;69156;55.932;-3.238;2023-07-13T03:53:48;100305.21;;;13.34;67.05
79690;BME280;69156;55.932;-3.238;2023-07-13T03:56:13;100303.36;;;13.19;66.91
79690;BME280;69156;55.932;-3.238;2023-07-13T03:58:39;100307.33;;;13.08;66.87
79690;BME280;69156;55.932;-3.238;2023-07-13T04:01:04;100303.23;;;13.05;67.01
79690;BME280;69156;55.932;-3.238;2023-07-13T04:03:29;100305.05;;;13.11;66.83
79690;BME280;69156;55.932;-3.238;2023-07-13T04:05:54;100307.45;;;13.03;66.75
79690;BME280;69156;55.932;-3.238;2023-07-13T04:08:19;100305.67;;;13.05;66.91
79690;BME280;69156;55.932;-3.238;2023-07-13T04:10:45;100308.88;;;13.06;66.80
79690;BME280;69156;55.932;-3.238;2023-07-13T04:13:10;100312.15;;;13.12;66.93
79690;BME280;69156;55.932;-3.238;2023-07-13T04:15:36;100308.27;;;13.04;66.69
79690;BME280;69156;55.932;-3.238;2023-07-13T04:18:01;100313.99;;;13.12;66.68
79690;BME280;69156;55.932;-3.238;2023-07-13T04:20:27;100316.75;;;12.98;66.79
79690;BME280;69156;55.932;-3.238;2023-07-13T04:22:52;100315.89;;;13.18;66.81
79690;BME280;69156;55.932;-3.238;2023-07-13T04:25:17;100318.36;;;13.13;66.63
79690;BME280;69156;55.932;-3.238;2023-07-13T04:27:42;100324.50;;;13.02;66.65
79690;BME280;69156;55.932;-3.238;2023-07-13T04:30:08;100331.37;;;13.08;66.75
79690;BME280;69156;55.932;-3.238;2023-07-13T04:32:33;100330.33;;;13.04;66.52
79690;BME280;69156;55.932;-3.238;2023-07-13T04:34:59;100330.71;;;13.13;66.22
79690;BME280;69156;55.932;-3.238;2023-07-13T04:37:25;100329.45;;;13.39;66.43
79690;BME280;69156;55.932;-3.238;2023-07-13T04:39:50;100332.17;;;13.37;65.91
79690;BME280;69156;55.932;-3.238;2023-07-13T04:42:16;100334.90;;;13.23;66.11
79690;BME280;69156;55.932;-3.238;2023-07-13T04:44:46;100340.10;;;13.31;66.54
79690;BME280;69156;55.932;-3.238;2023-07-13T04:47:08;100339.10;;;13.27;66.98
79690;BME280;69156;55.932;-3.238;2023-07-13T04:49:33;100340.39;;;13.42;67.02
79690;BME280;69156;55.932;-3.238;2023-07-13T04:51:58;100339.99;;;13.53;67.01
79690;BME280;69156;55.932;-3.238;2023-07-13T04:54:24;100339.80;;;13.59;66.64
79690;BME280;69156;55.932;-3.238;2023-07-13T04:56:50;100343.60;;;13.49;67.28
79690;BME280;69156;55.932;-3.238;2023-07-13T04:59:15;100345.62;;;13.59;67.04
79690;BME280;69156;55.932;-3.238;2023-07-13T05:01:40;100349.64;;;13.51;66.80
79690;BME280;69156;55.932;-3.238;2023-07-13T05:04:06;100351.27;;;13.58;66.92
79690;BME280;69156;55.932;-3.238;2023-07-13T05:06:30;100353.39;;;13.90;66.17
79690;BME280;69156;55.932;-3.238;2023-07-13T05:08:57;100359.34;;;13.75;65.87
79690;BME280;69156;55.932;-3.238;2023-07-13T05:11:22;100359.42;;;13.87;65.99
79690;BME280;69156;55.932;-3.238;2023-07-13T05:13:47;100359.10;;;13.95;66.42
79690;BME280;69156;55.932;-3.238;2023-07-13T05:16:12;100361.40;;;13.99;65.83
79690;BME280;69156;55.932;-3.238;2023-07-13T05:18:37;100357.71;;;13.98;66.00
79690;BME280;69156;55.932;-3.238;2023-07-13T05:21:05;100355.96;;;14.00;65.79
79690;BME280;69156;55.932;-3.238;2023-07-13T05:23:29;100358.89;;;14.04;65.65
79690;BME280;69156;55.932;-3.238;2023-07-13T05:25:54;100364.04;;;14.07;65.33
79690;BME280;69156;55.932;-3.238;2023-07-13T05:28:19;100363.50;;;14.02;65.52
79690;BME280;69156;55.932;-3.238;2023-07-13T05:30:46;100363.28;;;13.99;65.46
79690;BME280;69156;55.932;-3.238;2023-07-13T05:33:10;100361.43;;;14.09;64.77
79690;BME280;69156;55.932;-3.238;2023-07-13T05:35:36;100363.74;;;14.26;64.54
79690;BME280;69156;55.932;-3.238;2023-07-13T05:38:02;100368.44;;;14.27;64.50
79690;BME280;69156;55.932;-3.238;2023-07-13T05:40:27;100369.86;;;14.29;64.46
79690;BME280;69156;55.932;-3.238;2023-07-13T05:42:52;100370.20;;;14.21;64.62
79690;BME280;69156;55.932;-3.238;2023-07-13T05:45:18;100371.80;;;14.24;64.32
79690;BME280;69156;55.932;-3.238;2023-07-13T05:47:42;100376.23;;;14.27;64.13
79690;BME280;69156;55.932;-3.238;2023-07-13T05:50:09;100376.29;;;14.09;64.35
79690;BME280;69156;55.932;-3.238;2023-07-13T05:52:33;100380.51;;;14.24;64.38
79690;BME280;69156;55.932;-3.238;2023-07-13T05:54:59;100383.00;;;14.27;64.42
79690;BME280;69156;55.932;-3.238;2023-07-13T05:57:25;100387.10;;;14.21;63.86
79690;BME280;69156;55.932;-3.238;2023-07-13T05:59:50;100392.53;;;14.44;63.93
79690;BME280;69156;55.932;-3.238;2023-07-13T06:02:16;100398.40;;;14.39;64.01
79690;BME280;69156;55.932;-3.238;2023-07-13T06:04:41;100395.35;;;14.40;63.75
79690;BME280;69156;55.932;-3.238;2023-07-13T06:07:07;100395.68;;;14.45;63.19
79690;BME280;69156;55.932;-3.238;2023-07-13T06:09:32;100394.90;;;14.67;63.32
79690;BME280;69156;55.932;-3.238;2023-07-13T06:11:57;100396.79;;;14.59;63.20
79690;BME280;69156;55.932;-3.238;2023-07-13T06:14:23;100394.32;;;14.55;63.32
79690;BME280;69156;55.932;-3.238;2023-07-13T06:16:48;100398.26;;;14.39;63.66
79690;BME280;69156;55.932;-3.238;2023-07-13T06:19:14;100393.73;;;14.64;63.65
79690;BME280;69156;55.932;-3.238;2023-07-13T06:21:40;100399.96;;;14.67;62.93
79690;BME280;69156;55.932;-3.238;2023-07-13T06:24:06;100402.07;;;14.67;63.02
79690;BME280;69156;55.932;-3.238;2023-07-13T06:26:31;100403.60;;;14.73;63.11
79690;BME280;69156;55.932;-3.238;2023-07-13T06:28:57;100399.42;;;14.94;62.18
79690;BME280;69156;55.932;-3.238;2023-07-13T06:31:23;100402.62;;;14.82;61.85
79690;BME280;69156;55.932;-3.238;2023-07-13T06:33:48;100408.02;;;14.92;61.78
79690;BME280;69156;55.932;-3.238;2023-07-13T06:36:14;100409.27;;;14.93;62.07
79690;BME280;69156;55.932;-3.238;2023-07-13T06:38:39;100409.05;;;15.09;61.66
79690;BME280;69156;55.932;-3.238;2023-07-13T06:41:06;100411.50;;;15.27;61.29
79690;BME280;69156;55.932;-3.238;2023-07-13T06:43:30;100414.29;;;15.15;61.43
79690;BME280;69156;55.932;-3.238;2023-07-13T06:45:56;100411.62;;;15.44;60.44
79690;BME280;69156;55.932;-3.238;2023-07-13T06:48:20;100419.32;;;15.38;60.49
79690;BME280;69156;55.932;-3.238;2023-07-13T06:50:47;100420.54;;;15.20;60.73
79690;BME280;69156;55.932;-3.238;2023-07-13T06:53:12;100423.54;;;15.29;61.23
79690;BME280;69156;55.932;-3.238;2023-07-13T06:55:37;100423.53;;;15.57;61.22
79690;BME280;69156;55.932;-3.238;2023-07-13T06:58:02;100420.00;;;15.59;61.08
79690;BME280;69156;55.932;-3.238;2023-07-13T07:00:27;100425.80;;;15.63;60.85
79690;BME280;69156;55.932;-3.238;2023-07-13T07:02:52;100424.09;;;15.91;60.44
79690;BME280;69156;55.932;-3.238;2023-07-13T07:05:18;100429.06;;;15.87;60.35
79690;BME280;69156;55.932;-3.238;2023-07-13T07:07:43;100429.38;;;16.22;59.31
79690;BME280;69156;55.932;-3.238;2023-07-13T07:10:09;100433.01;;;16.26;59.19
79690;BME280;69156;55.932;-3.238;2023-07-13T07:12:34;100432.48;;;16.29;59.35
79690;BME280;69156;55.932;-3.238;2023-07-13T07:14:59;100433.04;;;16.26;58.78
79690;BME280;69156;55.932;-3.238;2023-07-13T07:17:25;100438.98;;;16.22;59.41
79690;BME280;69156;55.932;-3.238;2023-07-13T07:19:50;100435.72;;;15.97;58.76
79690;BME280;69156;55.932;-3.238;2023-07-13T07:22:16;100440.38;;;15.96;59.32
79690;BME280;69156;55.932;-3.238;2023-07-13T07:24:42;100436.64;;;16.02;59.06
79690;BME280;69156;55.932;-3.238;2023-07-13T07:27:08;100438.81;;;15.96;58.89
79690;BME280;69156;55.932;-3.238;2023-07-13T07:29:33;100442.11;;;16.05;58.59
79690;BME280;69156;55.932;-3.238;2023-07-13T07:31:59;100439.70;;;16.00;58.63
79690;BME280;69156;55.932;-3.238;2023-07-13T07:34:24;100440.63;;;15.91;58.12
79690;BME280;69156;55.932;-3.238;2023-07-13T07:36:49;100441.97;;;16.03;57.98
79690;BME280;69156;55.932;-3.238;2023-07-13T07:39:15;100442.47;;;16.12;57.99
79690;BME280;69156;55.932;-3.238;2023-07-13T07:41:41;100441.94;;;16.31;57.99
79690;BME280;69156;55.932;-3.238;2023-07-13T07:44:07;100437.76;;;16.40;57.35
79690;BME280;69156;55.932;-3.238;2023-07-13T07:46:32;100432.15;;;16.48;56.77
79690;BME280;69156;55.932;-3.238;2023-07-13T07:48:58;100437.33;;;16.46;56.91
79690;BME280;69156;55.932;-3.238;2023-07-13T07:51:23;100434.93;;;16.60;56.58
79690;BME280;69156;55.932;-3.238;2023-07-13T07:53:49;100442.57;;;16.37;56.57
79690;BME280;69156;55.932;-3.238;2023-07-13T07:56:14;100442.20;;;16.24;57.10
79690;BME280;69156;55.932;-3.238;2023-07-13T07:58:40;100439.08;;;16.31;56.72
79690;BME280;69156;55.932;-3.238;2023-07-13T08:01:06;100435.89;;;16.51;56.95
79690;BME280;69156;55.932;-3.238;2023-07-13T08:03:30;100433.31;;;16.64;56.47
79690;BME280;69156;55.932;-3.238;2023-07-13T08:05:56;100432.77;;;16.94;55.23
79690;BME280;69156;55.932;-3.238;2023-07-13T08:08:21;100437.03;;;16.70;56.41
79690;BME280;69156;55.932;-3.238;2023-07-13T08:10:48;100435.40;;;16.54;56.20
79690;BME280;69156;55.932;-3.238;2023-07-13T08:13:13;100434.81;;;16.48;56.24
79690;BME280;69156;55.932;-3.238;2023-07-13T08:15:39;100439.25;;;16.39;56.18
79690;BME280;69156;55.932;-3.238;2023-07-13T08:18:05;100442.72;;;16.42;56.36
79690;BME280;69156;55.932;-3.238;2023-07-13T08:20:30;100445.36;;;16.33;56.84
79690;BME280;69156;55.932;-3.238;2023-07-13T08:22:56;100443.75;;;16.29;56.68
79690;BME280;69156;55.932;-3.238;2023-07-13T08:25:21;100448.53;;;16.30;57.15
79690;BME280;69156;55.932;-3.238;2023-07-13T08:27:47;100454.61;;;16.33;56.54
79690;BME280;69156;55.932;-3.238;2023-07-13T08:30:13;100450.10;;;16.46;56.72
79690;BME280;69156;55.932;-3.238;2023-07-13T08:32:38;100443.80;;;16.53;56.52
79690;BME280;69156;55.932;-3.238;2023-07-13T08:35:04;100443.02;;;16.61;56.50
79690;BME280;69156;55.932;-3.238;2023-07-13T08:37:28;100445.30;;;16.81;55.70
79690;BME280;69156;55.932;-3.238;2023-07-13T08:39:54;100440.94;;;17.14;54.65
79690;BME280;69156;55.932;-3.238;2023-07-13T08:42:30;100439.41;;;17.39;55.40
79690;BME280;69156;55.932;-3.238;2023-07-13T08:44:52;100441.20;;;17.32;53.82
79690;BME280;69156;55.932;-3.238;2023-07-13T08:47:12;100440.55;;;17.19;54.29
79690;BME280;69156;55.932;-3.238;2023-07-13T08:49:36;100441.32;;;17.35;53.31
79690;BME280;69156;55.932;-3.238;2023-07-13T08:52:04;100441.51;;;17.22;52.05
79690;BME280;69156;55.932;-3.238;2023-07-13T08:54:29;100443.76;;;17.13;52.52
79690;BME280;69156;55.932;-3.238;2023-07-13T08:56:54;100449.04;;;17.12;52.40
79690;BME280;69156;55.932;-3.238;2023-07-13T08:59:20;100449.27;;;16.99;53.17
79690;BME280;69156;55.932;-3.238;2023-07-13T09:01:54;100450.56;;;16.98;52.84
79690;BME280;69156;55.932;-3.238;2023-07-13T09:04:14;100443.32;;;17.13;52.91
79690;BME280;69156;55.932;-3.238;2023-07-13T09:07:01;100441.98;;;17.27;53.01
79690;BME280;69156;55.932;-3.238;2023-07-13T09:09:03;100443.33;;;17.35;52.61
79690;BME280;69156;55.932;-3.238;2023-07-13T09:11:38;100442.98;;;17.51;52.41
79690;BME280;69156;55.932;-3.238;2023-07-13T09:13:55;100438.56;;;18.11;53.09
79690;BME280;69156;55.932;-3.238;2023-07-13T09:16:16;100439.88;;;18.34;52.17
79690;BME280;69156;55.932;-3.238;2023-07-13T09:18:44;100439.15;;;18.06;54.41
79690;BME280;69156;55.932;-3.238;2023-07-13T09:21:10;100445.98;;;17.67;53.22
79690;BME280;69156;55.932;-3.238;2023-07-13T09:23:32;100451.86;;;17.33;53.94
79690;BME280;69156;55.932;-3.238;2023-07-13T09:26:04;100453.99;;;17.00;54.38
79690;BME280;69156;55.932;-3.238;2023-07-13T09:28:25;100448.52;;;17.15;54.75
79690;BME280;69156;55.932;-3.238;2023-07-13T09:30:52;100448.66;;;17.12;54.27
79690;BME280;69156;55.932;-3.238;2023-07-13T09:33:13;100449.35;;;17.17;53.43
79690;BME280;69156;55.932;-3.238;2023-07-13T09:35:39;100445.02;;;17.40;53.55
79690;BME280;69156;55.932;-3.238;2023-07-13T09:38:12;100442.22;;;17.73;52.71
79690;BME280;69156;55.932;-3.238;2023-07-13T09:40:43;100441.80;;;18.15;52.08
79690;BME280;69156;55.932;-3.238;2023-07-13T09:42:57;100449.62;;;17.95;51.18
79690;BME280;69156;55.932;-3.238;2023-07-13T09:45:28;100454.05;;;17.58;51.65
79690;BME280;69156;55.932;-3.238;2023-07-13T09:47:45;100456.65;;;17.55;52.32
79690;BME280;69156;55.932;-3.238;2023-07-13T09:50:16;100460.91;;;17.32;52.53
79690;BME280;69156;55.932;-3.238;2023-07-13T09:52:42;100455.08;;;17.26;52.97
79690;BME280;69156;55.932;-3.238;2023-07-13T09:55:02;100458.58;;;17.30;52.42
79690;BME280;69156;55.932;-3.238;2023-07-13T09:57:27;100461.77;;;17.36;53.10
79690;BME280;69156;55.932;-3.238;2023-07-13T09:59:55;100462.01;;;17.76;52.51
79690;BME280;69156;55.932;-3.238;2023-07-13T10:02:23;100459.75;;;17.90;51.71
79690;BME280;69156;55.932;-3.238;2023-07-13T10:04:45;100461.77;;;18.05;52.33
79690;BME280;69156;55.932;-3.238;2023-07-13T10:07:13;100462.51;;;18.50;51.17
79690;BME280;69156;55.932;-3.238;2023-07-13T10:09:36;100471.78;;;18.06;50.89
79690;BME280;69156;55.932;-3.238;2023-07-13T10:12:01;100468.22;;;17.88;51.91
79690;BME280;69156;55.932;-3.238;2023-07-13T10:14:27;100476.13;;;17.84;50.86
79690;BME280;69156;55.932;-3.238;2023-07-13T10:16:57;100480.49;;;17.73;50.29
79690;BME280;69156;55.932;-3.238;2023-07-13T10:19:21;100481.22;;;17.66;50.78
79690;BME280;69156;55.932;-3.238;2023-07-13T10:21:49;100485.27;;;17.70;50.87
79690;BME280;69156;55.932;-3.238;2023-07-13T10:24:14;100483.46;;;17.85;50.37
79690;BME280;69156;55.932;-3.238;2023-07-13T10:26:34;100482.65;;;18.00;49.55
79690;BME280;69156;55.932;-3.238;2023-07-13T10:29:02;100478.24;;;18.28;48.86
79690;BME280;69156;55.932;-3.238;2023-07-13T10:31:24;100480.16;;;18.18;48.94
79690;BME280;69156;55.932;-3.238;2023-07-13T10:33:50;100483.00;;;18.12;48.90
79690;BME280;69156;55.932;-3.238;2023-07-13T10:36:20;100478.66;;;17.99;48.80
79690;BME280;69156;55.932;-3.238;2023-07-13T10:38:41;100475.86;;;17.83;49.17
79690;BME280;69156;55.932;-3.238;2023-07-13T10:41:10;100475.17;;;17.86;49.77
79690;BME280;69156;55.932;-3.238;2023-07-13T10:43:34;100478.15;;;17.70;50.52
79690;BME280;69156;55.932;-3.238;2023-07-13T10:45:59;100477.36;;;17.89;50.01
79690;BME280;69156;55.932;-3.238;2023-07-13T10:48:23;100477.07;;;17.71;51.05
79690;BME280;69156;55.932;-3.238;2023-07-13T10:50:50;100481.66;;;17.82;51.45
79690;BME280;69156;55.932;-3.238;2023-07-13T10:53:20;100488.07;;;17.92;50.01
79690;BME280;69156;55.932;-3.238;2023-07-13T10:55:41;100491.97;;;18.30;49.58
79690;BME280;69156;55.932;-3.238;2023-07-13T10:58:13;100493.71;;;18.39;48.42
79690;BME280;69156;55.932;-3.238;2023-07-13T11:00:31;100494.28;;;18.11;47.67
79690;BME280;69156;55.932;-3.238;2023-07-13T11:02:57;100497.00;;;18.03;48.63
79690;BME280;69156;55.932;-3.238;2023-07-13T11:05:27;100493.77;;;18.18;48.91
79690;BME280;69156;55.932;-3.238;2023-07-13T11:07:54;100493.86;;;18.15;49.13
79690;BME280;69156;55.932;-3.238;2023-07-13T11:10:47;100492.60;;;17.97;49.47
79690;BME280;69156;55.932;-3.238;2023-07-13T11:12:54;100489.23;;;17.94;49.93
79690;BME280;69156;55.932;-3.238;2023-07-13T11:15:10;100487.70;;;18.04;50.25
79690;BME280;69156;55.932;-3.238;2023-07-13T11:17:36;100485.63;;;18.10;49.82
79690;BME280;69156;55.932;-3.238;2023-07-13T11:20:37;100485.51;;;18.48;49.67
79690;BME280;69156;55.932;-3.238;2023-07-13T11:22:25;100482.93;;;18.58;48.79
79690;BME280;69156;55.932;-3.238;2023-07-13T11:24:51;100476.17;;;18.80;47.96
79690;BME280;69156;55.932;-3.238;2023-07-13T11:27:22;100478.02;;;19.02;46.76
79690;BME280;69156;55.932;-3.238;2023-07-13T11:29:38;100474.74;;;19.37;45.70
79690;BME280;69156;55.932;-3.238;2023-07-13T11:32:23;100472.35;;;19.39;45.25
79690;BME280;69156;55.932;-3.238;2023-07-13T11:34:30;100471.96;;;19.54;44.06
79690;BME280;69156;55.932;-3.238;2023-07-13T11:36:53;100469.29;;;19.70;44.48
79690;BME280;69156;55.932;-3.238;2023-07-13T11:39:21;100464.62;;;19.89;43.22
79690;BME280;69156;55.932;-3.238;2023-07-13T11:41:45;100465.44;;;19.75;44.25
79690;BME280;69156;55.932;-3.238;2023-07-13T11:44:14;100468.42;;;19.79;44.24
79690;BME280;69156;55.932;-3.238;2023-07-13T11:46:33;100472.48;;;19.45;45.05
79690;BME280;69156;55.932;-3.238;2023-07-13T11:48:59;100474.59;;;19.47;46.13
79690;BME280;69156;55.932;-3.238;2023-07-13T11:51:27;100475.00;;;19.41;45.48
79690;BME280;69156;55.932;-3.238;2023-07-13T11:53:54;100470.76;;;19.40;44.48
79690;BME280;69156;55.932;-3.238;2023-07-13T11:56:16;100467.19;;;19.12;45.66
79690;BME280;69156;55.932;-3.238;2023-07-13T11:58:41;100470.43;;;19.30;45.91
79690;BME280;69156;55.932;-3.238;2023-07-13T12:01:17;100468.29;;;19.44;45.36
79690;BME280;69156;55.932;-3.238;2023-07-13T12:03:33;100466.47;;;19.54;45.19
79690;BME280;69156;55.932;-3.238;2023-07-13T12:05:59;100460.63;;;19.75;44.45
79690;BME280;69156;55.932;-3.238;2023-07-13T12:08:23;100463.68;;;19.67;44.31
79690;BME280;69156;55.932;-3.238;2023-07-13T12:10:57;100462.90;;;19.46;45.28
79690;BME280;69156;55.932;-3.238;2023-07-13T12:13:15;100454.87;;;19.56;45.40
79690;BME280;69156;55.932;-3.238;2023-07-13T12:15:42;100460.55;;;19.63;44.68
79690;BME280;69156;55.932;-3.238;2023-07-13T12:18:12;100462.41;;;19.92;44.45
79690;BME280;69156;55.932;-3.238;2023-07-13T12:20:37;100454.51;;;20.33;44.98
79690;BME280;69156;55.932;-3.238;2023-07-13T12:22:58;100451.90;;;20.54;43.56
79690;BME280;69156;55.932;-3.238;2023-07-13T12:25:24;100454.57;;;20.63;43.26
79690;BME280;69156;55.932;-3.238;2023-07-13T12:27:50;100453.32;;;20.68;43.51
79690;BME280;69156;55.932;-3.238;2023-07-13T12:30:25;100456.77;;;20.69;42.77